Time;durP1;ratioP1;P1;durP2;ratioP2;P2;SDS_P1;SDS_P2;PMS_P1;PMS_P2;Temp;Humidity;BMP_temperature;BMP_pressure;BME280_temperature;BME280_humidity;BME280_pressure;Samples;Min_cycle;Max_cycle;Signal;HPM_P1;HPM_P2
2022/12/11 00:00:57;;;;;;;16.85;8.25;;;0.80;87.70;;;;;;5011213;28;20045;-71
2022/12/11 00:03:23;;;;;;;13.48;8.20;;;0.80;87.90;;;;;;5010649;28;20049;-73
2022/12/11 00:05:49;;;;;;;14.82;7.63;;;0.80;87.70;;;;;;5009236;28;20779;-73
2022/12/11 00:08:14;;;;;;;15.90;8.82;;;0.90;87.80;;;;;;5008630;28;20112;-73
2022/12/11 00:10:47;;;;;;;13.68;7.43;;;0.90;87.10;;;;;;5003348;28;20029;-74
2022/12/11 00:13:13;;;;;;;15.90;8.27;;;0.90;87.40;;;;;;5012905;28;20041;-71
2022/12/11 00:15:38;;;;;;;15.52;7.82;;;0.90;87.80;;;;;;5008098;28;20026;-70
2022/12/11 00:18:05;;;;;;;15.32;7.70;;;0.90;87.80;;;;;;5015022;28;20686;-70
2022/12/11 00:20:31;;;;;;;15.85;9.07;;;0.90;87.80;;;;;;5010590;28;20836;-70
2022/12/11 00:22:56;;;;;;;17.45;8.50;;;0.90;87.90;;;;;;5010910;28;20107;-70
2022/12/11 00:25:22;;;;;;;14.60;7.53;;;0.90;87.80;;;;;;5012915;28;20129;-72
2022/12/11 00:27:48;;;;;;;15.20;9.02;;;0.90;88.00;;;;;;5010681;28;20030;-71
2022/12/11 00:30:14;;;;;;;16.77;9.27;;;0.90;88.00;;;;;;5004178;28;20124;-72
2022/12/11 00:32:39;;;;;;;15.07;7.45;;;0.90;88.10;;;;;;5008853;28;20029;-73
2022/12/11 00:35:06;;;;;;;17.90;8.02;;;0.90;87.80;;;;;;5006859;28;20030;-73
2022/12/11 00:37:31;;;;;;;16.20;8.68;;;0.90;88.20;;;;;;5017211;28;20079;-73
2022/12/11 00:39:57;;;;;;;16.20;8.13;;;0.90;87.70;;;;;;5007428;28;20025;-73
2022/12/11 00:42:23;;;;;;;15.13;8.40;;;0.90;88.20;;;;;;5009909;28;20038;-73
2022/12/11 00:44:49;;;;;;;15.88;8.55;;;0.90;88.20;;;;;;5009200;28;20033;-73
2022/12/11 00:47:15;;;;;;;15.00;8.77;;;0.90;88.50;;;;;;5005226;28;20139;-73
2022/12/11 00:49:41;;;;;;;14.38;8.52;;;0.90;88.60;;;;;;5005556;28;20489;-73
2022/12/11 00:52:07;;;;;;;13.73;8.38;;;0.90;88.60;;;;;;5010806;28;20140;-70
2022/12/11 00:54:33;;;;;;;14.43;8.07;;;0.90;88.60;;;;;;5008270;28;20686;-70
2022/12/11 00:56:59;;;;;;;18.63;9.32;;;0.90;88.60;;;;;;5007934;28;20077;-72
2022/12/11 00:59:26;;;;;;;12.15;7.32;;;0.90;88.40;;;;;;5010232;28;20120;-71
2022/12/11 01:01:52;;;;;;;17.98;9.15;;;0.90;88.60;;;;;;5010650;28;20481;-70
2022/12/11 01:04:18;;;;;;;15.25;8.55;;;0.90;88.40;;;;;;5009930;28;20063;-70
2022/12/11 01:06:43;;;;;;;15.45;9.55;;;1.00;88.30;;;;;;5003217;28;20151;-70
2022/12/11 01:11:54;;;;;;;20.08;8.95;;;0.90;87.80;;;;;;5010240;28;20030;-71
2022/12/11 01:14:19;;;;;;;15.55;8.77;;;0.90;88.10;;;;;;5008104;28;20080;-71
2022/12/11 01:16:45;;;;;;;16.88;10.05;;;0.90;88.00;;;;;;5008358;28;20496;-71
2022/12/11 01:19:11;;;;;;;17.15;8.65;;;0.90;88.30;;;;;;5009139;28;20107;-71
2022/12/11 01:21:37;;;;;;;15.18;8.55;;;0.80;88.80;;;;;;5011499;28;20140;-70
2022/12/11 01:24:03;;;;;;;14.57;8.05;;;0.90;89.40;;;;;;5007035;28;20118;-71
2022/12/11 01:26:29;;;;;;;14.25;8.05;;;0.90;89.30;;;;;;5005526;28;20045;-71
2022/12/11 01:28:55;;;;;;;13.05;7.55;;;0.80;88.90;;;;;;5010989;28;20030;-71
2022/12/11 01:31:21;;;;;;;15.15;8.88;;;0.80;89.20;;;;;;5010409;28;20433;-71
2022/12/11 01:33:46;;;;;;;14.77;8.10;;;0.80;89.40;;;;;;5018918;28;20145;-71
2022/12/11 01:36:18;;;;;;;14.70;8.15;;;0.80;89.30;;;;;;5015099;28;20030;-71
2022/12/11 01:38:48;;;;;;;15.27;7.80;;;0.80;88.40;;;;;;5012661;28;20033;-71
2022/12/11 01:41:15;;;;;;;16.17;8.88;;;0.80;89.00;;;;;;5013571;28;20516;-71
2022/12/11 01:44:02;;;;;;;16.52;8.48;;;0.80;89.60;;;;;;5007845;28;20707;-71
2022/12/11 01:46:28;;;;;;;;;;;0.80;90.00;;;;;;5010091;28;20065;-71
2022/12/11 01:48:54;;;;;;;18.92;9.40;;;0.90;89.30;;;;;;5013690;28;19913;-70
2022/12/11 01:51:21;;;;;;;12.73;7.38;;;0.80;89.20;;;;;;5013537;28;20042;-71
2022/12/11 01:53:55;;;;;;;14.55;7.45;;;0.80;89.40;;;;;;5015303;28;20828;-71
2022/12/11 01:56:21;;;;;;;17.45;8.18;;;0.80;89.80;;;;;;5012512;28;20100;-71
2022/12/11 01:58:53;;;;;;;13.88;7.63;;;0.80;89.90;;;;;;5011800;28;20040;-71
2022/12/11 02:01:46;;;;;;;13.60;8.18;;;0.80;89.50;;;;;;5011192;28;20037;-71
2022/12/11 02:04:14;;;;;;;12.07;7.38;;;0.90;89.40;;;;;;5006324;28;20068;-71
2022/12/11 02:06:44;;;;;;;16.83;8.25;;;0.90;89.50;;;;;;5011597;28;20112;-71
2022/12/11 02:09:15;;;;;;;13.77;7.65;;;0.90;89.60;;;;;;5010748;28;20061;-71
2022/12/11 02:12:01;;;;;;;13.43;7.55;;;1.00;89.20;;;;;;5013680;28;20033;-71
2022/12/11 02:14:39;;;;;;;;;;;0.90;87.60;;;;;;5013181;28;20026;-71
2022/12/11 02:17:17;;;;;;;12.27;6.50;;;1.00;88.10;;;;;;5012055;28;20360;-71
2022/12/11 02:20:11;;;;;;;12.88;6.97;;;0.90;88.70;;;;;;5011442;28;20029;-71
2022/12/11 02:22:43;;;;;;;12.27;6.72;;;0.90;89.20;;;;;;5006287;28;20029;-71
2022/12/11 02:25:21;;;;;;;15.05;8.18;;;0.90;89.40;;;;;;5014292;28;20037;-71
2022/12/11 02:28:02;;;;;;;12.23;6.82;;;0.80;88.60;;;;;;5013680;28;20041;-70
2022/12/11 02:30:28;;;;;;;13.93;7.65;;;0.80;88.80;;;;;;5018516;28;20049;-71
2022/12/11 02:32:56;;;;;;;14.05;7.32;;;0.80;88.30;;;;;;5009431;28;20037;-70
2022/12/11 02:35:37;;;;;;;12.30;6.82;;;0.80;89.00;;;;;;5012232;28;20061;-70
2022/12/11 02:38:29;;;;;;;12.70;7.45;;;0.70;88.30;;;;;;5012581;28;20711;-70
2022/12/11 02:40:56;;;;;;;12.25;6.55;;;0.70;89.40;;;;;;5004440;28;20143;-70
2022/12/11 02:43:24;;;;;;;12.85;6.93;;;0.80;89.40;;;;;;5006508;28;20065;-71
2022/12/11 02:45:51;;;;;;;11.73;6.35;;;0.80;89.40;;;;;;5012126;28;20128;-70
2022/12/11 02:48:19;;;;;;;12.82;6.88;;;0.80;89.60;;;;;;5012327;28;20056;-70
2022/12/11 02:50:47;;;;;;;14.90;7.80;;;0.80;89.40;;;;;;5013688;28;20037;-70
2022/12/11 02:53:17;;;;;;;11.60;6.65;;;0.80;89.80;;;;;;5010792;28;20137;-70
2022/12/11 02:55:45;;;;;;;13.98;7.40;;;0.90;90.00;;;;;;5014351;28;20150;-70
2022/12/11 02:58:18;;;;;;;11.05;6.03;;;0.90;90.10;;;;;;5008978;28;20132;-70
2022/12/11 03:00:45;;;;;;;11.88;7.05;;;0.90;90.20;;;;;;5016086;28;20084;-71
2022/12/11 03:03:12;;;;;;;15.10;8.00;;;0.90;90.00;;;;;;5012621;28;20047;-70
2022/12/11 03:05:38;;;;;;;14.70;7.30;;;1.00;89.60;;;;;;5008239;28;20133;-70
2022/12/11 03:08:05;;;;;;;15.43;7.03;;;1.00;89.60;;;;;;5018821;28;20112;-70
2022/12/11 03:10:30;;;;;;;11.68;6.45;;;1.00;90.10;;;;;;5011394;28;20717;-70
2022/12/11 03:12:57;;;;;;;12.20;6.65;;;1.00;89.80;;;;;;5010048;28;20152;-70
2022/12/11 03:15:33;;;;;;;11.02;6.45;;;1.00;88.60;;;;;;5012547;28;20883;-70
2022/12/11 03:18:23;;;;;;;11.88;7.13;;;0.90;88.60;;;;;;5003760;28;20912;-71
2022/12/11 03:21:16;;;;;;;12.77;7.13;;;1.00;88.90;;;;;;5007188;28;20057;-70
2022/12/11 03:24:00;;;;;;;13.15;7.13;;;1.00;89.00;;;;;;5006552;28;20457;-70
2022/12/11 03:26:29;;;;;;;12.35;7.28;;;0.90;88.90;;;;;;5010814;28;20108;-70
2022/12/11 03:28:59;;;;;;;12.40;6.22;;;1.00;89.40;;;;;;5010893;28;20087;-70
2022/12/11 03:31:39;;;;;;;11.90;7.18;;;0.90;89.20;;;;;;5010413;28;20115;-70
2022/12/11 03:34:16;;;;;;;12.02;6.93;;;0.90;89.70;;;;;;5012035;28;20033;-71
2022/12/11 03:36:44;;;;;;;10.73;6.10;;;0.90;89.50;;;;;;5006307;28;20073;-70
2022/12/11 03:39:17;;;;;;;13.23;7.55;;;0.90;89.80;;;;;;5004239;28;20050;-70
2022/12/11 03:41:45;;;;;;;12.07;6.95;;;0.90;90.00;;;;;;5010146;28;20041;-71
2022/12/11 03:44:12;;;;;;;12.43;7.20;;;0.90;90.00;;;;;;5011581;28;20040;-71
2022/12/11 03:46:39;;;;;;;12.07;6.85;;;1.00;90.00;;;;;;5012341;28;20064;-70
2022/12/11 03:49:16;;;;;;;12.02;7.18;;;1.00;90.10;;;;;;5008443;28;20037;-70
2022/12/11 03:51:45;;;;;;;12.43;6.47;;;1.00;90.00;;;;;;5009534;28;20142;-71
2022/12/11 03:54:11;;;;;;;10.20;5.70;;;1.00;90.10;;;;;;5009002;28;20033;-70
2022/12/11 03:56:39;;;;;;;13.20;6.80;;;0.90;90.20;;;;;;5004088;28;20034;-71
2022/12/11 03:59:05;;;;;;;13.05;7.07;;;1.00;90.30;;;;;;5008574;28;20048;-70
2022/12/11 04:01:31;;;;;;;12.52;6.40;;;1.00;90.20;;;;;;5012035;28;20033;-71
2022/12/11 04:03:57;;;;;;;14.70;7.57;;;1.00;90.00;;;;;;5015862;28;20086;-71
2022/12/11 04:06:22;;;;;;;13.38;7.30;;;1.00;89.80;;;;;;5010446;28;20124;-70
2022/12/11 04:08:48;;;;;;;9.25;5.78;;;1.00;89.40;;;;;;5008421;28;20042;-70
2022/12/11 04:16:42;;;;;;;12.32;6.63;;;1.00;90.00;;;;;;5004085;28;20041;-71
2022/12/11 04:24:58;;;;;;;11.85;6.18;;;1.00;90.30;;;;;;4997842;28;20037;-71
2022/12/11 04:30:21;;;;;;;9.73;5.80;;;1.00;90.10;;;;;;5004474;28;20647;-71
2022/12/11 04:32:47;;;;;;;12.20;6.00;;;1.00;90.20;;;;;;5007237;28;20668;-71
2022/12/11 04:35:14;;;;;;;8.82;5.72;;;1.00;90.20;;;;;;5003577;28;20026;-71
2022/12/11 04:37:40;;;;;;;10.35;6.13;;;1.10;90.20;;;;;;5009111;28;20113;-68
2022/12/11 04:40:10;;;;;;;11.25;6.70;;;1.10;90.20;;;;;;5012160;28;20038;-68
2022/12/11 04:42:35;;;;;;;12.40;6.70;;;1.10;90.30;;;;;;5014592;28;20029;-68
2022/12/11 04:45:01;;;;;;;12.73;6.07;;;1.10;90.30;;;;;;5007528;28;20034;-68
2022/12/11 04:47:27;;;;;;;10.57;6.57;;;1.10;90.10;;;;;;5010010;28;21942;-67
2022/12/11 04:49:53;;;;;;;14.13;7.55;;;1.10;90.00;;;;;;5009803;28;20041;-68
2022/12/11 04:52:18;;;;;;;10.48;5.60;;;1.10;90.00;;;;;;5007472;28;20581;-68
2022/12/11 04:54:44;;;;;;;13.50;7.40;;;1.10;90.30;;;;;;5001952;28;20037;-68
2022/12/11 04:57:10;;;;;;;15.20;7.65;;;1.10;90.50;;;;;;5011312;28;20490;-68
2022/12/11 04:59:37;;;;;;;11.77;6.68;;;1.10;90.60;;;;;;5008141;28;20037;-68
2022/12/11 05:02:03;;;;;;;13.73;7.40;;;1.10;90.50;;;;;;5014354;28;20046;-68
2022/12/11 05:04:33;;;;;;;14.00;6.85;;;1.10;90.60;;;;;;5016586;28;20030;-68
2022/12/11 05:06:59;;;;;;;12.45;7.10;;;1.10;90.50;;;;;;5013874;28;20454;-68
2022/12/11 05:09:26;;;;;;;13.48;6.97;;;1.10;90.50;;;;;;5015349;28;20042;-68
2022/12/11 05:11:53;;;;;;;11.40;6.70;;;1.10;90.50;;;;;;5007101;28;20501;-68
2022/12/11 05:14:19;;;;;;;13.80;7.78;;;1.20;90.50;;;;;;5008933;28;20041;-68
2022/12/11 05:16:45;;;;;;;13.60;7.97;;;1.10;90.30;;;;;;5012980;28;20964;-68
2022/12/11 05:19:11;;;;;;;16.92;8.90;;;1.20;90.40;;;;;;5016563;28;20034;-68
2022/12/11 05:21:37;;;;;;;29.02;14.00;;;1.10;90.40;;;;;;5016135;28;20033;-68
2022/12/11 05:24:03;;;;;;;16.08;9.10;;;1.10;90.40;;;;;;5011846;28;20533;-67
2022/12/11 05:26:29;;;;;;;19.35;9.63;;;1.10;90.40;;;;;;5017543;28;20030;-67
2022/12/11 05:28:55;;;;;;;20.77;12.75;;;1.10;90.40;;;;;;5011715;28;20048;-68
2022/12/11 05:31:23;;;;;;;24.42;12.63;;;1.10;90.60;;;;;;5005657;28;20140;-68
2022/12/11 05:33:50;;;;;;;16.88;8.00;;;1.10;90.70;;;;;;5010285;28;20026;-68
2022/12/11 05:36:22;;;;;;;14.10;7.22;;;1.10;90.50;;;;;;5012058;28;20041;-68
2022/12/11 05:38:48;;;;;;;15.55;7.25;;;1.00;90.60;;;;;;5013033;28;20831;-68
2022/12/11 05:41:17;;;;;;;13.95;7.05;;;1.10;90.70;;;;;;5012845;28;20034;-68
2022/12/11 05:43:43;;;;;;;13.77;7.40;;;1.10;90.60;;;;;;5011621;28;20560;-68
2022/12/11 05:46:21;;;;;;;13.27;6.68;;;1.00;90.60;;;;;;5013998;28;20034;-67
2022/12/11 05:48:50;;;;;;;11.77;6.03;;;1.00;90.50;;;;;;5012035;28;20496;-69
2022/12/11 05:51:17;;;;;;;14.07;7.65;;;1.00;90.60;;;;;;5005900;28;20944;-68
2022/12/11 05:53:44;;;;;;;14.63;7.35;;;1.00;90.90;;;;;;5013238;28;20029;-67
2022/12/11 05:56:19;;;;;;;15.68;7.70;;;1.00;90.70;;;;;;5014083;28;20115;-68
2022/12/11 05:58:47;;;;;;;15.48;7.65;;;1.00;90.80;;;;;;5014777;28;20065;-68
2022/12/11 06:01:19;;;;;;;16.10;8.27;;;1.00;90.60;;;;;;5010564;28;20044;-69
2022/12/11 06:03:46;;;;;;;14.63;8.48;;;1.00;90.60;;;;;;5014063;28;20040;-68
2022/12/11 06:06:12;;;;;;;18.58;8.93;;;1.00;90.70;;;;;;5011892;28;20029;-68
2022/12/11 06:08:38;;;;;;;16.20;8.60;;;1.00;90.50;;;;;;5012153;28;20045;-68
2022/12/11 06:11:04;;;;;;;14.77;6.90;;;1.10;90.70;;;;;;5015728;28;20030;-69
2022/12/11 06:13:29;;;;;;;18.77;9.30;;;1.00;90.70;;;;;;5008934;28;20057;-68
2022/12/11 06:16:01;;;;;;;19.98;9.30;;;1.10;90.70;;;;;;5010816;28;20080;-68
2022/12/11 06:18:27;;;;;;;20.23;8.50;;;1.00;90.40;;;;;;5010583;28;20052;-69
2022/12/11 06:20:53;;;;;;;17.85;9.77;;;0.90;90.30;;;;;;5015054;28;20038;-68
2022/12/11 06:23:19;;;;;;;16.80;8.13;;;1.00;90.80;;;;;;5008487;28;20665;-69
2022/12/11 06:25:45;;;;;;;15.30;7.45;;;1.00;90.40;;;;;;5013692;28;20624;-68
2022/12/11 06:28:11;;;;;;;16.00;8.48;;;0.90;90.60;;;;;;5015112;28;20133;-68
2022/12/11 06:30:37;;;;;;;19.90;9.00;;;1.00;90.60;;;;;;5011212;28;20132;-68
2022/12/11 06:33:03;;;;;;;17.55;8.75;;;1.00;90.70;;;;;;5008399;28;20045;-68
2022/12/11 06:35:29;;;;;;;18.52;8.13;;;1.00;90.80;;;;;;5007548;28;20026;-69
2022/12/11 06:37:55;;;;;;;15.52;7.70;;;1.00;90.60;;;;;;5012893;28;20030;-68
2022/12/11 06:40:21;;;;;;;15.20;7.50;;;1.00;90.70;;;;;;5011756;28;20034;-68
2022/12/11 06:42:46;;;;;;;15.68;7.90;;;1.10;90.60;;;;;;5007675;28;20044;-68
2022/12/11 06:45:12;;;;;;;14.82;7.85;;;1.10;90.30;;;;;;5014546;28;20172;-69
2022/12/11 06:47:38;;;;;;;13.60;7.53;;;1.10;90.40;;;;;;5009103;28;20124;-68
2022/12/11 06:50:04;;;;;;;15.23;7.80;;;1.10;90.50;;;;;;5014358;28;20136;-68
2022/12/11 06:52:30;;;;;;;17.27;7.70;;;1.10;90.60;;;;;;5010023;28;20370;-68
2022/12/11 06:54:56;;;;;;;14.63;7.57;;;1.10;90.50;;;;;;5014716;28;20090;-68
2022/12/11 06:57:22;;;;;;;17.08;8.27;;;1.10;90.40;;;;;;5014198;28;20738;-68
2022/12/11 06:59:48;;;;;;;16.13;7.03;;;1.10;90.20;;;;;;5011157;28;20390;-68
2022/12/11 07:02:15;;;;;;;18.55;8.00;;;1.10;90.40;;;;;;5008246;28;20036;-69
2022/12/11 07:04:41;;;;;;;17.98;8.55;;;1.00;90.50;;;;;;5005707;28;20054;-68
2022/12/11 07:07:08;;;;;;;17.15;7.88;;;1.00;90.40;;;;;;5004056;28;20037;-68
2022/12/11 07:09:35;;;;;;;15.20;8.10;;;1.00;90.50;;;;;;5007702;28;20492;-68
2022/12/11 07:12:02;;;;;;;14.43;6.97;;;1.00;89.50;;;;;;5035138;28;20037;-68
2022/12/11 07:14:29;;;;;;;15.93;8.15;;;1.00;90.00;;;;;;5008015;28;20025;-68
2022/12/11 07:16:56;;;;;;;14.88;7.18;;;1.00;90.00;;;;;;5012813;28;20088;-68
2022/12/11 07:19:22;;;;;;;17.73;7.95;;;1.00;90.10;;;;;;5005575;28;20036;-68
2022/12/11 07:21:48;;;;;;;16.83;7.63;;;1.00;90.10;;;;;;5009122;28;20417;-68
2022/12/11 07:24:14;;;;;;;18.00;8.25;;;1.00;90.20;;;;;;5006301;28;20034;-68
2022/12/11 07:26:40;;;;;;;16.40;7.93;;;1.00;90.30;;;;;;5009436;28;20034;-68
2022/12/11 07:29:05;;;;;;;17.33;7.47;;;1.00;90.40;;;;;;5008708;28;20044;-68
2022/12/11 07:31:31;;;;;;;18.92;8.13;;;1.00;90.50;;;;;;5004529;28;20037;-68
2022/12/11 07:34:04;;;;;;;14.75;7.57;;;1.00;90.20;;;;;;5011439;28;20033;-67
2022/12/11 07:36:30;;;;;;;12.95;7.05;;;1.10;90.00;;;;;;5012080;28;20140;-68
2022/12/11 07:38:57;;;;;;;23.75;8.90;;;1.10;90.10;;;;;;5010639;28;20576;-68
2022/12/11 07:41:23;;;;;;;16.20;8.10;;;1.10;90.10;;;;;;5010911;28;20137;-70
2022/12/11 07:43:53;;;;;;;23.08;11.63;;;1.10;90.20;;;;;;5008632;28;20055;-70
2022/12/11 07:46:23;;;;;;;18.73;9.20;;;1.10;89.90;;;;;;5006748;28;20038;-70
2022/12/11 07:48:49;;;;;;;17.60;9.25;;;1.10;89.80;;;;;;5004855;28;20034;-70
2022/12/11 07:51:23;;;;;;;18.20;8.45;;;1.10;90.00;;;;;;5008685;28;20019;-67
2022/12/11 07:53:50;;;;;;;17.05;8.23;;;1.10;90.20;;;;;;5010660;28;20033;-70
2022/12/11 07:56:20;;;;;;;17.35;8.45;;;1.10;90.20;;;;;;5010361;28;20129;-71
2022/12/11 07:58:47;;;;;;;17.17;9.23;;;1.10;90.10;;;;;;5008605;28;20030;-70
2022/12/11 08:01:15;;;;;;;20.88;9.70;;;1.10;90.00;;;;;;5009079;28;20211;-71
2022/12/11 08:03:42;;;;;;;16.98;8.82;;;1.20;90.00;;;;;;5007257;28;20034;-71
2022/12/11 08:06:08;;;;;;;19.02;9.57;;;1.20;90.00;;;;;;5003991;28;20402;-70
2022/12/11 08:08:34;;;;;;;19.98;9.25;;;1.20;90.00;;;;;;5009915;28;20094;-72
2022/12/11 08:11:01;;;;;;;20.20;9.75;;;1.20;90.00;;;;;;4999839;28;20493;-74
2022/12/11 08:13:27;;;;;;;19.23;9.77;;;1.20;90.00;;;;;;5009286;28;20041;-74
2022/12/11 08:15:52;;;;;;;20.63;8.63;;;1.20;89.70;;;;;;5006175;28;20084;-72
2022/12/11 08:18:18;;;;;;;21.77;10.77;;;1.20;89.90;;;;;;5003698;28;20039;-74
2022/12/11 08:20:44;;;;;;;21.13;10.07;;;1.30;90.00;;;;;;5004770;28;20049;-74
2022/12/11 08:23:10;;;;;;;16.58;8.38;;;1.30;90.00;;;;;;5010474;28;20597;-74
2022/12/11 08:25:36;;;;;;;17.98;9.05;;;1.30;89.90;;;;;;5009099;28;20107;-74
2022/12/11 08:28:03;;;;;;;15.57;8.98;;;1.30;90.00;;;;;;5006003;28;20033;-73
2022/12/11 08:30:30;;;;;;;13.82;8.00;;;1.30;89.70;;;;;;5006784;28;20466;-71
2022/12/11 08:32:57;;;;;;;17.92;8.70;;;1.30;89.60;;;;;;5004291;28;20038;-74
2022/12/11 08:35:23;;;;;;;28.67;11.38;;;1.40;89.30;;;;;;5006056;28;20167;-74
2022/12/11 08:37:48;;;;;;;18.92;8.63;;;1.40;88.90;;;;;;5003189;28;20038;-72
2022/12/11 08:40:14;;;;;;;16.67;7.28;;;1.40;88.60;;;;;;5005322;28;20037;-73
2022/12/11 08:42:40;;;;;;;16.38;8.75;;;1.40;88.80;;;;;;5003764;28;20045;-72
2022/12/11 08:45:06;;;;;;;18.73;8.88;;;1.40;88.70;;;;;;5006069;28;20150;-73
2022/12/11 08:47:32;;;;;;;19.17;9.15;;;1.40;88.10;;;;;;5008170;28;20033;-74
2022/12/11 08:49:58;;;;;;;17.42;8.52;;;1.40;87.00;;;;;;5008768;28;20033;-73
2022/12/11 08:52:24;;;;;;;17.15;8.57;;;1.40;87.20;;;;;;5008347;28;20595;-71
2022/12/11 08:54:50;;;;;;;16.77;8.10;;;1.40;86.00;;;;;;5005243;28;20048;-69
2022/12/11 08:57:16;;;;;;;16.83;7.85;;;1.40;85.50;;;;;;5008795;28;20128;-70
2022/12/11 08:59:41;;;;;;;20.23;8.05;;;1.40;86.10;;;;;;5007045;28;20026;-71
2022/12/11 09:02:11;;;;;;;16.55;8.35;;;1.30;86.00;;;;;;5009720;28;20041;-72
2022/12/11 09:04:37;;;;;;;15.57;7.53;;;1.30;85.60;;;;;;5007394;28;20034;-70
2022/12/11 09:07:03;;;;;;;16.52;7.65;;;1.30;85.90;;;;;;5006351;28;20828;-70
2022/12/11 09:09:29;;;;;;;15.68;7.05;;;1.30;85.80;;;;;;5009852;28;20043;-70
2022/12/11 09:11:55;;;;;;;19.10;8.43;;;1.30;86.20;;;;;;5006001;28;20065;-71
2022/12/11 09:14:21;;;;;;;19.42;7.90;;;1.40;86.10;;;;;;5009607;28;20496;-70
2022/12/11 09:16:47;;;;;;;16.30;7.82;;;1.40;86.20;;;;;;5009657;28;20034;-70
2022/12/11 09:19:14;;;;;;;17.88;8.40;;;1.40;86.50;;;;;;5008169;28;20040;-70
2022/12/11 09:21:40;;;;;;;16.95;7.50;;;1.40;86.20;;;;;;5006746;28;20070;-71
2022/12/11 09:24:07;;;;;;;17.02;8.23;;;1.50;85.70;;;;;;5007857;28;20924;-76
2022/12/11 09:26:33;;;;;;;13.23;7.18;;;1.50;84.70;;;;;;5012023;28;20859;-71
2022/12/11 09:29:02;;;;;;;16.30;7.85;;;1.60;84.70;;;;;;5005025;28;20026;-71
2022/12/11 09:31:31;;;;;;;15.48;7.10;;;1.60;83.90;;;;;;5007754;28;20071;-73
2022/12/11 09:34:00;;;;;;;13.93;7.93;;;1.60;83.80;;;;;;5007951;28;20111;-71
2022/12/11 09:36:26;;;;;;;14.68;6.68;;;1.60;83.20;;;;;;5007213;28;20077;-73
2022/12/11 09:38:52;;;;;;;16.25;7.55;;;1.60;83.10;;;;;;5005366;28;20505;-65
2022/12/11 09:41:21;;;;;;;14.52;6.88;;;1.60;83.20;;;;;;5008318;28;20033;-70
2022/12/11 09:43:47;;;;;;;15.35;7.45;;;1.60;83.30;;;;;;5002893;28;20488;-70
2022/12/11 09:46:14;;;;;;;15.10;7.32;;;1.60;82.80;;;;;;5004718;28;20092;-71
2022/12/11 09:48:48;;;;;;;13.95;6.93;;;1.60;82.90;;;;;;5008688;28;20448;-71
2022/12/11 09:51:27;;;;;;;18.08;8.45;;;1.60;82.90;;;;;;5010453;28;20036;-71
2022/12/11 09:53:56;;;;;;;18.33;7.10;;;1.60;82.80;;;;;;5014341;28;20075;-74
2022/12/11 09:56:29;;;;;;;15.25;6.80;;;1.60;83.40;;;;;;5016094;28;20042;-70
2022/12/11 09:59:30;;;;;;;15.10;6.47;;;1.60;83.90;;;;;;5011945;28;20084;-70
2022/12/11 10:02:19;;;;;;;13.77;6.63;;;1.60;83.40;;;;;;4992648;28;20050;-70
2022/12/11 10:05:04;;;;;;;12.48;6.47;;;1.50;83.40;;;;;;5009073;28;20041;-69
2022/12/11 10:08:05;;;;;;;12.93;6.50;;;1.60;83.60;;;;;;5017915;28;20497;-71
2022/12/11 10:10:48;;;;;;;17.90;7.25;;;1.60;83.20;;;;;;4995535;28;20037;-71
2022/12/11 10:13:13;;;;;;;15.73;7.15;;;1.60;83.00;;;;;;5007386;28;20049;-73
2022/12/11 10:15:49;;;;;;;18.20;7.68;;;1.60;82.70;;;;;;5014646;28;20030;-71
2022/12/11 10:18:21;;;;;;;16.15;6.95;;;1.60;83.00;;;;;;5007783;28;20025;-69
2022/12/11 10:20:51;;;;;;;16.52;7.57;;;1.60;81.80;;;;;;5009419;28;20435;-71
2022/12/11 10:23:21;;;;;;;15.00;7.68;;;1.70;82.40;;;;;;5010617;28;20065;-73
2022/12/11 10:26:15;;;;;;;18.00;7.55;;;1.70;83.00;;;;;;5019227;28;20665;-73
2022/12/11 10:28:41;;;;;;;16.45;7.60;;;1.70;82.60;;;;;;5010562;28;20076;-70
2022/12/11 10:31:42;;;;;;;16.85;7.97;;;1.70;82.30;;;;;;5007661;28;20050;-71
2022/12/11 10:34:18;;;;;;;16.38;6.68;;;1.70;83.20;;;;;;5004973;28;20077;-71
2022/12/11 10:36:44;;;;;;;14.73;7.70;;;1.70;82.50;;;;;;5012027;28;20061;-71
2022/12/11 10:39:19;;;;;;;21.23;8.55;;;1.70;82.10;;;;;;5010195;28;20049;-71
2022/12/11 10:41:53;;;;;;;17.58;8.43;;;1.70;82.50;;;;;;5006211;28;20034;-70
2022/12/11 10:44:20;;;;;;;18.52;7.97;;;1.70;82.90;;;;;;5009478;28;20140;-72
2022/12/11 10:46:48;;;;;;;15.77;7.63;;;1.70;82.60;;;;;;5008465;28;20414;-71
2022/12/11 10:49:50;;;;;;;15.68;7.30;;;1.70;83.40;;;;;;5008731;28;20040;-73
2022/12/11 10:52:30;;;;;;;15.95;7.50;;;1.60;83.40;;;;;;5012040;28;20049;-71
2022/12/11 10:55:01;;;;;;;19.98;8.15;;;1.60;82.20;;;;;;5010945;28;20042;-71
2022/12/11 10:57:34;;;;;;;14.45;7.53;;;1.60;83.00;;;;;;5005631;28;20675;-72
2022/12/11 11:00:01;;;;;;;15.77;7.50;;;1.60;83.70;;;;;;5008264;28;20035;-71
2022/12/11 11:02:33;;;;;;;14.23;7.60;;;1.60;83.80;;;;;;5006987;28;20083;-71
2022/12/11 11:05:10;;;;;;;15.57;8.07;;;1.70;83.20;;;;;;5007695;28;20089;-71
2022/12/11 11:07:36;;;;;;;19.10;8.85;;;1.70;84.00;;;;;;5008518;28;20044;-72
2022/12/11 11:10:10;;;;;;;15.57;8.18;;;1.70;84.30;;;;;;5008140;28;20037;-71
2022/12/11 11:12:47;;;;;;;15.32;7.90;;;1.70;84.60;;;;;;5001813;28;20067;-71
2022/12/11 11:15:26;;;;;;;19.08;9.45;;;1.70;84.20;;;;;;5009992;28;20037;-73
2022/12/11 11:17:55;;;;;;;17.63;9.18;;;1.80;83.80;;;;;;5008298;28;20034;-71
2022/12/11 11:20:26;;;;;;;18.88;9.77;;;1.90;83.60;;;;;;5010183;28;20042;-75
2022/12/11 11:23:01;;;;;;;24.63;11.07;;;1.90;83.50;;;;;;5014332;28;20042;-72
2022/12/11 11:25:30;;;;;;;19.55;8.82;;;1.80;83.40;;;;;;5011810;28;20085;-73
2022/12/11 11:28:01;;;;;;;15.90;8.30;;;1.80;83.10;;;;;;5008840;28;20611;-72
2022/12/11 11:30:36;;;;;;;16.63;9.10;;;1.80;84.00;;;;;;5004456;28;20072;-76
2022/12/11 11:33:18;;;;;;;15.48;7.72;;;1.80;83.40;;;;;;5004070;28;20045;-72
2022/12/11 11:35:57;;;;;;;18.08;8.93;;;1.80;83.50;;;;;;5007781;28;20079;-72
2022/12/11 11:38:42;;;;;;;19.48;9.07;;;1.90;83.90;;;;;;5004437;28;20088;-77
2022/12/11 11:41:27;;;;;;;18.58;9.32;;;1.80;83.80;;;;;;5008073;28;20037;-73
2022/12/11 11:44:09;;;;;;;17.35;8.98;;;1.80;84.00;;;;;;5005815;28;20087;-73
2022/12/11 11:46:44;;;;;;;23.15;10.18;;;1.80;84.50;;;;;;5010737;28;20144;-71
2022/12/11 11:49:40;;;;;;;18.63;9.93;;;1.80;84.20;;;;;;5009055;28;20033;-74
2022/12/11 11:52:25;;;;;;;20.65;9.52;;;1.80;84.30;;;;;;5009521;28;20029;-74
2022/12/11 11:55:05;;;;;;;21.75;11.55;;;1.70;84.80;;;;;;5009545;28;20065;-73
2022/12/11 11:58:09;;;;;;;21.10;11.90;;;1.80;84.80;;;;;;5008103;28;20037;-74
2022/12/11 12:00:35;;;;;;;21.27;10.38;;;1.70;84.50;;;;;;4963487;28;20037;-79
2022/12/11 12:03:09;;;;;;;19.60;10.00;;;1.70;85.10;;;;;;5008164;28;20072;-74
2022/12/11 12:06:08;;;;;;;21.50;10.15;;;1.70;85.50;;;;;;5042682;28;20025;-74
2022/12/11 12:08:58;;;;;;;21.85;9.77;;;1.70;85.30;;;;;;5003704;28;20052;-74
2022/12/11 12:11:31;;;;;;;21.60;9.27;;;1.70;85.70;;;;;;5040818;28;20139;-74
2022/12/11 12:14:20;;;;;;;22.55;8.68;;;1.70;85.30;;;;;;5007748;28;20886;-73
2022/12/11 12:17:13;;;;;;;22.70;9.85;;;1.80;85.60;;;;;;5008729;28;20030;-74
2022/12/11 12:20:03;;;;;;;17.48;9.05;;;1.70;85.10;;;;;;5008473;28;20029;-74
2022/12/11 12:22:44;;;;;;;20.33;9.73;;;1.80;85.70;;;;;;5005696;28;20112;-74
2022/12/11 12:25:22;;;;;;;14.85;7.15;;;1.80;85.40;;;;;;5011119;28;20492;-74
2022/12/11 12:28:02;;;;;;;17.33;8.60;;;1.80;85.70;;;;;;5007011;28;20087;-74
2022/12/11 12:30:37;;;;;;;20.30;9.00;;;1.80;86.30;;;;;;5008029;28;20099;-73
2022/12/11 12:33:39;;;;;;;18.95;8.40;;;1.90;86.20;;;;;;5008867;28;20469;-75
2022/12/11 12:36:25;;;;;;;17.27;8.43;;;1.90;85.70;;;;;;4993016;28;20192;-74
2022/12/11 12:38:53;;;;;;;16.77;8.07;;;1.90;85.60;;;;;;5011983;28;20030;-73
2022/12/11 12:41:48;;;;;;;18.02;8.85;;;1.90;85.60;;;;;;5001094;28;20042;-74
2022/12/11 12:44:20;;;;;;;18.67;9.60;;;1.90;85.60;;;;;;5009926;28;20046;-75
2022/12/11 12:46:58;;;;;;;18.40;8.10;;;1.90;84.90;;;;;;5007144;28;20042;-73
2022/12/11 12:49:36;;;;;;;18.38;8.68;;;1.90;85.30;;;;;;5007140;28;20086;-73
2022/12/11 12:52:03;;;;;;;20.70;10.00;;;1.90;85.50;;;;;;5009288;28;20419;-74
2022/12/11 12:54:32;;;;;;;18.65;8.50;;;1.90;85.20;;;;;;5009717;28;20029;-73
2022/12/11 12:57:01;;;;;;;18.52;8.70;;;1.90;85.50;;;;;;5007460;28;20034;-75
2022/12/11 12:59:27;;;;;;;18.50;9.43;;;1.80;85.90;;;;;;5008093;28;20033;-75
2022/12/11 13:01:58;;;;;;;23.08;9.43;;;1.80;86.20;;;;;;5007592;28;20494;-74
2022/12/11 13:04:54;;;;;;;22.58;9.50;;;1.90;86.10;;;;;;5008798;28;20030;-74
2022/12/11 13:07:28;;;;;;;18.83;9.07;;;1.90;85.80;;;;;;5002999;28;20045;-74
2022/12/11 13:10:03;;;;;;;19.10;8.90;;;1.90;85.70;;;;;;5006629;28;20752;-74
2022/12/11 13:12:45;;;;;;;16.80;8.10;;;2.00;86.20;;;;;;5010855;28;20037;-78
2022/12/11 13:15:35;;;;;;;16.77;8.85;;;2.00;86.00;;;;;;5042389;28;20038;-71
2022/12/11 13:18:05;;;;;;;16.95;8.40;;;2.00;86.40;;;;;;5006285;28;20041;-75
2022/12/11 13:20:33;;;;;;;20.40;9.73;;;2.10;86.00;;;;;;5009447;28;20083;-71
2022/12/11 13:23:05;;;;;;;17.98;9.07;;;2.10;86.30;;;;;;5010083;28;20025;-72